PWSweather.com
Personal Weather Stations
Station Observations
WISCHPK61
Green Bay Schmitt Park, Green Bay, WI 54311

Green Bay Schmitt ParkGreen Bay, WI 54311

Lat: 44.514277, Lon: -87.935067

Elevation: 735

Station Type: Acu Rite Pro Weather Center model 02032C

http://greenbayweathercam.com

High Low Average
Temperature 49.3°F9.6°C 15.3°F-9.3°C 32.0°F0.0°C
Dew Point 35.2°F1.8°C 15.1°F-9.4°C 26.5°F-3.1°C
Winds 4.6 mph 7.4 kmh Calm Calm 1.0 mph SW1.6 kmh SW
Wind Gusts 5.8 mph9.3 kmh -- 1.0 mph1.6 kmh
Humidity 99% 56% 82%
Pressure 29.53 in1000.0 mb 29.37 in994.6 mb -
Precipitation 0.00 in0.0 mm - -
Hour Temp Dew Point Humidity Winds Wind Gusts Pressure Precip Precip Rate Daily Precip Total
12:00 AM 23.9°F-4.5°C 22.9°F-5.1°C 96% 2.3 mph SSE3.7 kmh SSE 2.3 mph3.7 kmh 29.46 in997.6 mb - 0.00 in0.0 mm 0.02 in0.5 mm
12:15 AM 23.7°F-4.6°C 22.7°F-5.2°C 96% Calm Calm -- 29.46 in997.6 mb - 0.00 in0.0 mm 0.02 in0.5 mm
12:30 AM 23.7°F-4.6°C 22.7°F-5.2°C 96% Calm Calm -- 29.46 in997.6 mb - 0.00 in0.0 mm 0.02 in0.5 mm
12:45 AM 23.4°F-4.8°C 22.4°F-5.3°C 96% Calm Calm -- 29.47 in998.0 mb - 0.00 in0.0 mm 0.02 in0.5 mm
01:00 AM 23.0°F-5.0°C 22.3°F-5.4°C 97% Calm Calm -- 29.47 in998.0 mb - 0.00 in0.0 mm 0.00 in0.0 mm
01:15 AM 22.5°F-5.3°C 21.8°F-5.7°C 97% Calm Calm -- 29.48 in998.3 mb - 0.00 in0.0 mm 0.00 in0.0 mm
01:30 AM 21.9°F-5.6°C 21.4°F-5.9°C 98% Calm Calm -- 29.48 in998.3 mb - 0.00 in0.0 mm 0.00 in0.0 mm
01:45 AM 21.4°F-5.9°C 20.9°F-6.2°C 98% Calm Calm -- 29.48 in998.3 mb - 0.00 in0.0 mm 0.00 in0.0 mm
02:00 AM 20.8°F-6.2°C 20.3°F-6.5°C 98% Calm Calm -- 29.48 in998.3 mb - 0.00 in0.0 mm 0.00 in0.0 mm
02:15 AM 20.3°F-6.5°C 20.1°F-6.6°C 99% Calm Calm -- 29.48 in998.3 mb - 0.00 in0.0 mm 0.00 in0.0 mm
02:30 AM 19.8°F-6.8°C 19.6°F-6.9°C 99% Calm Calm -- 29.49 in998.6 mb - 0.00 in0.0 mm 0.00 in0.0 mm
02:45 AM 19.2°F-7.1°C 19.0°F-7.2°C 99% Calm Calm -- 29.48 in998.3 mb - 0.00 in0.0 mm 0.00 in0.0 mm
03:00 AM 19.0°F-7.2°C 18.8°F-7.3°C 99% Calm Calm -- 29.48 in998.3 mb - 0.00 in0.0 mm 0.00 in0.0 mm
03:15 AM 18.7°F-7.4°C 18.5°F-7.5°C 99% Calm Calm -- 29.47 in998.0 mb - 0.00 in0.0 mm 0.00 in0.0 mm
03:30 AM 18.5°F-7.5°C 18.3°F-7.6°C 99% Calm Calm -- 29.47 in998.0 mb - 0.00 in0.0 mm 0.00 in0.0 mm
03:45 AM 18.1°F-7.7°C 17.9°F-7.8°C 99% Calm Calm -- 29.46 in997.6 mb - 0.00 in0.0 mm 0.00 in0.0 mm
04:00 AM 18.0°F-7.8°C 17.8°F-7.9°C 99% Calm Calm -- 29.46 in997.6 mb - 0.00 in0.0 mm 0.00 in0.0 mm
04:15 AM 17.8°F-7.9°C 17.6°F-8.0°C 99% Calm Calm -- 29.47 in998.0 mb - 0.00 in0.0 mm 0.00 in0.0 mm
04:30 AM 17.6°F-8.0°C 17.4°F-8.1°C 99% Calm Calm -- 29.47 in998.0 mb - 0.00 in0.0 mm 0.00 in0.0 mm
04:45 AM 17.6°F-8.0°C 17.4°F-8.1°C 99% Calm Calm -- 29.47 in998.0 mb - 0.00 in0.0 mm 0.00 in0.0 mm
05:00 AM 17.1°F-8.3°C 16.9°F-8.4°C 99% Calm Calm -- 29.48 in998.3 mb - 0.00 in0.0 mm 0.00 in0.0 mm
05:15 AM 16.9°F-8.4°C 16.7°F-8.5°C 99% Calm Calm -- 29.49 in998.6 mb - 0.00 in0.0 mm 0.00 in0.0 mm
05:30 AM 16.5°F-8.6°C 16.3°F-8.7°C 99% Calm Calm -- 29.49 in998.6 mb - 0.00 in0.0 mm 0.00 in0.0 mm
05:45 AM 16.2°F-8.8°C 16.0°F-8.9°C 99% Calm Calm -- 29.49 in998.6 mb - 0.00 in0.0 mm 0.00 in0.0 mm
06:00 AM 16.0°F-8.9°C 15.8°F-9.0°C 99% Calm Calm -- 29.50 in999.0 mb - 0.00 in0.0 mm 0.00 in0.0 mm
06:15 AM 15.8°F-9.0°C 15.6°F-9.1°C 99% Calm Calm -- 29.50 in999.0 mb - 0.00 in0.0 mm 0.00 in0.0 mm
06:30 AM 15.4°F-9.2°C 15.2°F-9.3°C 99% Calm Calm -- 29.51 in999.3 mb - 0.00 in0.0 mm 0.00 in0.0 mm
06:45 AM 15.3°F-9.3°C 15.1°F-9.4°C 99% Calm Calm -- 29.51 in999.3 mb - 0.00 in0.0 mm 0.00 in0.0 mm
07:00 AM 15.3°F-9.3°C 15.1°F-9.4°C 99% Calm Calm -- 29.52 in999.7 mb - 0.00 in0.0 mm 0.00 in0.0 mm
07:15 AM 15.3°F-9.3°C 15.1°F-9.4°C 99% Calm Calm -- 29.52 in999.7 mb - 0.00 in0.0 mm 0.00 in0.0 mm
07:30 AM 15.6°F-9.1°C 15.4°F-9.2°C 99% Calm Calm -- 29.52 in999.7 mb - 0.00 in0.0 mm 0.00 in0.0 mm
07:45 AM 16.2°F-8.8°C 15.9°F-8.9°C 99% Calm Calm -- 29.52 in999.7 mb - 0.00 in0.0 mm 0.00 in0.0 mm
08:00 AM 16.5°F-8.6°C 16.3°F-8.7°C 99% Calm Calm -- 29.52 in999.7 mb - 0.00 in0.0 mm 0.00 in0.0 mm
08:15 AM 17.0°F-8.3°C 16.8°F-8.4°C 99% Calm Calm -- 29.52 in999.7 mb - 0.00 in0.0 mm 0.00 in0.0 mm
08:30 AM 18.9°F-7.3°C 18.7°F-7.4°C 99% Calm Calm -- 29.52 in999.7 mb - 0.00 in0.0 mm 0.00 in0.0 mm
08:45 AM 20.5°F-6.4°C 20.3°F-6.5°C 99% Calm Calm -- 29.52 in999.7 mb - 0.00 in0.0 mm 0.00 in0.0 mm
09:00 AM 23.3°F-4.8°C 22.8°F-5.1°C 98% Calm Calm -- 29.52 in999.7 mb - 0.00 in0.0 mm 0.00 in0.0 mm
09:15 AM 24.4°F-4.2°C 23.7°F-4.6°C 97% Calm Calm -- 29.53 in1000.0 mb - 0.00 in0.0 mm 0.00 in0.0 mm
09:30 AM 28.1°F-2.2°C 26.4°F-3.1°C 93% Calm Calm -- 29.53 in1000.0 mb - 0.00 in0.0 mm 0.00 in0.0 mm
09:45 AM 32.0°F0.0°C 27.7°F-2.4°C 84% Calm Calm -- 29.53 in1000.0 mb - 0.00 in0.0 mm 0.00 in0.0 mm
10:00 AM 34.5°F1.4°C 28.3°F-2.1°C 78% Calm Calm -- 29.53 in1000.0 mb - 0.00 in0.0 mm 0.00 in0.0 mm
10:15 AM 35.2°F1.8°C 28.7°F-1.8°C 77% Calm Calm -- 29.52 in999.7 mb - 0.00 in0.0 mm 0.00 in0.0 mm
10:30 AM 36.3°F2.4°C 28.8°F-1.8°C 74% Calm Calm -- 29.53 in1000.0 mb - 0.00 in0.0 mm 0.00 in0.0 mm
10:45 AM 36.5°F2.5°C 29.0°F-1.7°C 74% Calm Calm 1.2 mph1.9 kmh 29.52 in999.7 mb - 0.00 in0.0 mm 0.00 in0.0 mm
11:00 AM 38.3°F3.5°C 29.7°F-1.3°C 71% 2.3 mph NW3.7 kmh NW 2.3 mph3.7 kmh 29.52 in999.7 mb - 0.00 in0.0 mm 0.00 in0.0 mm
11:15 AM 39.7°F4.3°C 30.7°F-0.7°C 70% 1.2 mph NE1.9 kmh NE 1.2 mph1.9 kmh 29.52 in999.7 mb - 0.00 in0.0 mm 0.00 in0.0 mm
11:30 AM 40.2°F4.6°C 30.8°F-0.7°C 69% 1.2 mph NNW1.9 kmh NNW 2.3 mph3.7 kmh 29.52 in999.7 mb - 0.00 in0.0 mm 0.00 in0.0 mm
11:45 AM 41.1°F5.1°C 31.4°F-0.3°C 68% Calm Calm 1.2 mph1.9 kmh 29.52 in999.7 mb - 0.00 in0.0 mm 0.00 in0.0 mm
12:00 PM 42.3°F5.7°C 31.8°F-0.1°C 66% 1.2 mph NW1.9 kmh NW 2.3 mph3.7 kmh 29.52 in999.7 mb - 0.00 in0.0 mm 0.00 in0.0 mm
12:15 PM 40.9°F4.9°C 31.2°F-0.4°C 68% 3.5 mph E5.6 kmh E 4.6 mph7.4 kmh 29.52 in999.7 mb - 0.00 in0.0 mm 0.00 in0.0 mm
12:30 PM 44.6°F7.0°C 32.8°F0.4°C 63% 1.2 mph SSW1.9 kmh SSW 1.2 mph1.9 kmh 29.51 in999.3 mb - 0.00 in0.0 mm 0.00 in0.0 mm
12:45 PM 46.0°F7.8°C 33.3°F0.7°C 61% 2.3 mph WNW3.7 kmh WNW 2.3 mph3.7 kmh 29.51 in999.3 mb - 0.00 in0.0 mm 0.00 in0.0 mm
01:00 PM 46.0°F7.8°C 33.3°F0.7°C 61% 3.5 mph N5.6 kmh N 3.5 mph5.6 kmh 29.51 in999.3 mb - 0.00 in0.0 mm 0.00 in0.0 mm
01:15 PM 46.2°F7.9°C 33.0°F0.6°C 60% 3.5 mph NNW5.6 kmh NNW 5.8 mph9.3 kmh 29.50 in999.0 mb - 0.00 in0.0 mm 0.00 in0.0 mm
01:30 PM 44.7°F7.1°C 33.3°F0.7°C 64% 2.3 mph NNW3.7 kmh NNW 5.8 mph9.3 kmh 29.49 in998.6 mb - 0.00 in0.0 mm 0.00 in0.0 mm
01:45 PM 48.7°F9.3°C 34.2°F1.2°C 57% 2.3 mph W3.7 kmh W 2.3 mph3.7 kmh 29.49 in998.6 mb - 0.00 in0.0 mm 0.00 in0.0 mm
02:00 PM 47.9°F8.8°C 32.9°F0.5°C 56% 4.6 mph NNW7.4 kmh NNW 4.6 mph7.4 kmh 29.48 in998.3 mb - 0.00 in0.0 mm 0.00 in0.0 mm
02:15 PM 45.8°F7.7°C 32.7°F0.4°C 60% 2.3 mph WSW3.7 kmh WSW 2.3 mph3.7 kmh 29.48 in998.3 mb - 0.00 in0.0 mm 0.00 in0.0 mm
02:30 PM 46.4°F8.0°C 32.8°F0.4°C 59% 2.3 mph SE3.7 kmh SE 2.3 mph3.7 kmh 29.47 in998.0 mb - 0.00 in0.0 mm 0.00 in0.0 mm
02:45 PM 45.2°F7.3°C 32.9°F0.5°C 62% 2.3 mph S3.7 kmh S 2.3 mph3.7 kmh 29.47 in998.0 mb - 0.00 in0.0 mm 0.00 in0.0 mm
03:00 PM 48.9°F9.4°C 35.2°F1.8°C 59% 2.3 mph SSE3.7 kmh SSE 4.6 mph7.4 kmh 29.46 in997.6 mb - 0.00 in0.0 mm 0.00 in0.0 mm
03:15 PM 49.3°F9.6°C 34.3°F1.3°C 56% 2.3 mph WNW3.7 kmh WNW 2.3 mph3.7 kmh 29.46 in997.6 mb - 0.00 in0.0 mm 0.00 in0.0 mm
03:30 PM 46.7°F8.2°C 34.0°F1.1°C 61% Calm Calm 1.2 mph1.9 kmh 29.46 in997.6 mb - 0.00 in0.0 mm 0.00 in0.0 mm
03:45 PM 44.9°F7.2°C 31.8°F-0.1°C 60% 2.3 mph SE3.7 kmh SE 2.3 mph3.7 kmh 29.45 in997.3 mb - 0.00 in0.0 mm 0.00 in0.0 mm
04:00 PM 45.3°F7.4°C 32.6°F0.3°C 61% 3.5 mph NW5.6 kmh NW 4.6 mph7.4 kmh 29.45 in997.3 mb - 0.00 in0.0 mm 0.00 in0.0 mm
04:15 PM 44.0°F6.7°C 31.4°F-0.3°C 61% 2.3 mph S3.7 kmh S 3.5 mph5.6 kmh 29.45 in997.3 mb - 0.00 in0.0 mm 0.00 in0.0 mm
04:30 PM 42.6°F5.9°C 29.7°F-1.3°C 60% 2.3 mph W3.7 kmh W 2.3 mph3.7 kmh 29.45 in997.3 mb - 0.00 in0.0 mm 0.00 in0.0 mm
04:45 PM 42.4°F5.8°C 30.3°F-0.9°C 62% Calm Calm -- 29.44 in997.0 mb - 0.00 in0.0 mm 0.00 in0.0 mm
05:00 PM 41.7°F5.4°C 29.2°F-1.6°C 61% 1.2 mph SW1.9 kmh SW 1.2 mph1.9 kmh 29.44 in997.0 mb - 0.00 in0.0 mm 0.00 in0.0 mm
05:15 PM 41.0°F5.0°C 29.0°F-1.7°C 62% 2.3 mph WNW3.7 kmh WNW 2.3 mph3.7 kmh 29.44 in997.0 mb - 0.00 in0.0 mm 0.00 in0.0 mm
05:30 PM 40.6°F4.8°C 30.1°F-1.1°C 66% Calm Calm -- 29.44 in997.0 mb - 0.00 in0.0 mm 0.00 in0.0 mm
05:45 PM 39.7°F4.3°C 30.0°F-1.1°C 68% Calm Calm -- 29.44 in997.0 mb - 0.00 in0.0 mm 0.00 in0.0 mm
06:00 PM 39.6°F4.2°C 30.3°F-0.9°C 69% Calm Calm -- 29.43 in996.6 mb - 0.00 in0.0 mm 0.00 in0.0 mm
06:15 PM 39.2°F4.0°C 30.2°F-1.0°C 70% Calm Calm -- 29.43 in996.6 mb - 0.00 in0.0 mm 0.00 in0.0 mm
06:30 PM 38.8°F3.8°C 30.2°F-1.0°C 71% Calm Calm -- 29.43 in996.6 mb - 0.00 in0.0 mm 0.00 in0.0 mm
06:45 PM 38.1°F3.4°C 29.9°F-1.2°C 72% Calm Calm -- 29.43 in996.6 mb - 0.00 in0.0 mm 0.00 in0.0 mm
07:00 PM 37.4°F3.0°C 29.9°F-1.2°C 74% Calm Calm -- 29.43 in996.6 mb - 0.00 in0.0 mm 0.00 in0.0 mm
07:15 PM 37.2°F2.9°C 30.0°F-1.1°C 75% Calm Calm -- 29.43 in996.6 mb - 0.00 in0.0 mm 0.00 in0.0 mm
07:30 PM 37.0°F2.8°C 29.5°F-1.4°C 74% Calm Calm -- 29.43 in996.6 mb - 0.00 in0.0 mm 0.00 in0.0 mm
07:45 PM 36.9°F2.7°C 30.0°F-1.1°C 76% Calm Calm -- 29.42 in996.3 mb - 0.00 in0.0 mm 0.00 in0.0 mm
08:00 PM 36.5°F2.5°C 30.0°F-1.1°C 77% Calm Calm -- 29.42 in996.3 mb - 0.00 in0.0 mm 0.00 in0.0 mm
08:15 PM 36.5°F2.5°C 30.0°F-1.1°C 77% Calm Calm -- 29.42 in996.3 mb - 0.00 in0.0 mm 0.00 in0.0 mm
08:30 PM 36.3°F2.4°C 30.4°F-0.9°C 79% Calm Calm -- 29.41 in995.9 mb - 0.00 in0.0 mm 0.00 in0.0 mm
08:45 PM 36.1°F2.3°C 30.5°F-0.8°C 80% Calm Calm -- 29.41 in995.9 mb - 0.00 in0.0 mm 0.00 in0.0 mm
09:00 PM 36.1°F2.3°C 30.8°F-0.7°C 81% Calm Calm -- 29.41 in995.9 mb - 0.00 in0.0 mm 0.00 in0.0 mm
09:15 PM 36.0°F2.2°C 30.7°F-0.7°C 81% Calm Calm -- 29.41 in995.9 mb - 0.00 in0.0 mm 0.00 in0.0 mm
09:30 PM 36.0°F2.2°C 31.0°F-0.6°C 82% Calm Calm -- 29.41 in995.9 mb - 0.00 in0.0 mm 0.00 in0.0 mm
09:45 PM 36.0°F2.2°C 31.3°F-0.4°C 83% Calm Calm 1.2 mph1.9 kmh 29.40 in995.6 mb - 0.00 in0.0 mm 0.00 in0.0 mm
10:00 PM 35.8°F2.1°C 31.4°F-0.3°C 84% Calm Calm 1.2 mph1.9 kmh 29.40 in995.6 mb - 0.00 in0.0 mm 0.00 in0.0 mm
10:15 PM 35.6°F2.0°C 31.2°F-0.4°C 84% Calm Calm 2.3 mph3.7 kmh 29.40 in995.6 mb - 0.00 in0.0 mm 0.00 in0.0 mm
10:30 PM 35.4°F1.9°C 32.2°F0.1°C 88% 1.2 mph NW1.9 kmh NW 1.2 mph1.9 kmh 29.40 in995.6 mb - 0.00 in0.0 mm 0.00 in0.0 mm
10:45 PM 35.1°F1.7°C 32.2°F0.1°C 89% Calm Calm 1.2 mph1.9 kmh 29.40 in995.6 mb - 0.00 in0.0 mm 0.00 in0.0 mm
11:00 PM 34.9°F1.6°C 32.0°F0.0°C 89% Calm Calm -- 29.40 in995.6 mb - 0.00 in0.0 mm 0.00 in0.0 mm
11:15 PM 34.9°F1.6°C 31.7°F-0.2°C 88% Calm Calm -- 29.39 in995.3 mb - 0.00 in0.0 mm 0.00 in0.0 mm
11:30 PM 34.9°F1.6°C 32.0°F0.0°C 89% 1.2 mph WNW1.9 kmh WNW 1.2 mph1.9 kmh 29.38 in994.9 mb - 0.00 in0.0 mm 0.00 in0.0 mm
11:45 PM 34.9°F1.6°C 32.0°F0.0°C 89% Calm Calm -- 29.38 in994.9 mb - 0.00 in0.0 mm 0.00 in0.0 mm